To NAV CANADA Home Page Login to a new session Search on AWWS site Feedback and Comments Disclaimer Vers la page française équivalente Tips FAQ What's new on the site To the Forecasts and Observations / NOTAM section To "File a Flight Plan" website Publications and other links Update of the User's profile FIC Telephone Numbers My Weather Data Folder Route Weather Data Regional Weather Data Local Weather Data To the Forecasts and Observations / NOTAM section
Request Generated 10/18/2017 at 03:55:47 UTC . Weather information available at that time is displayed.

METAR/TAF

ABBOTSFORD/BC    

METAR CYXX 180300Z 18005KT 15SM SCT040 OVC150 09/05 A3010 RMK SC3AC5
SLP195=
METAR CYXX 180200Z 18009KT 15SM SCT040 OVC150 10/05 A3009 RMK SC3AS5
SLP193=
METAR CYXX 180100Z 18009KT 30SM FEW045 OVC160 12/06 A3010 RMK SC2AS6
SLP195=

TAF CYXX 172338Z 1800/1824 21010KT P6SM SCT030 SCT100 BKN220 TEMPO
1800/1805 BKN030 BKN100
BECMG 1802/1804 VRB03KT
FM180500 VRB03KT P6SM SCT040 BKN120 OVC200 TEMPO 1805/1814 BKN040
OVC120
FM181500 05010KT P6SM -RA OVC030 TEMPO 1815/1824 4SM -SHRA BR
SCT008 OVC012
BECMG 1818/1820 18012G22KT
RMK NXT FCST BY 180600Z=
Your time UTC time
Weather data provided by Environment Canada and NAV CANADA